createdAt,value
2018-01-15T00:00:43.625Z,0
2018-01-15T00:01:43.726Z,0
2018-01-15T00:02:45.191Z,4
2018-01-15T00:03:44.379Z,0
2018-01-15T00:04:44.785Z,0
2018-01-15T00:05:45.527Z,0
2018-01-15T00:06:45.275Z,0
2018-01-15T00:07:45.498Z,0
2018-01-15T00:08:46.440Z,0
2018-01-15T00:09:46.670Z,0
2018-01-15T00:10:46.522Z,0
2018-01-15T00:11:45.879Z,0
2018-01-15T00:12:45.250Z,0
2018-01-15T00:13:46.384Z,0
2018-01-15T00:14:46.847Z,0
2018-01-15T00:15:46.020Z,0
2018-01-15T00:16:46.224Z,0
2018-01-15T00:17:46.018Z,0
2018-01-15T00:18:46.268Z,0
2018-01-15T00:19:46.048Z,0
2018-01-15T00:20:46.952Z,0
2018-01-15T00:21:46.422Z,0
2018-01-15T00:22:46.519Z,0
2018-01-15T00:23:46.218Z,0
2018-01-15T00:24:46.456Z,0
2018-01-15T00:25:46.621Z,0
2018-01-15T00:26:46.966Z,0
2018-01-15T00:27:47.370Z,0
2018-01-15T00:28:47.802Z,0
2018-01-15T00:29:47.821Z,0
2018-01-15T00:30:48.058Z,0
2018-01-15T00:31:48.017Z,0
2018-01-15T00:32:48.652Z,0
2018-01-15T00:33:48.445Z,0
2018-01-15T00:34:48.351Z,0
2018-01-15T00:35:49.164Z,0
2018-01-15T00:36:48.818Z,0
2018-01-15T00:37:49.348Z,0
2018-01-15T00:38:49.353Z,0
2018-01-15T00:39:50.061Z,0
2018-01-15T00:40:49.304Z,0
2018-01-15T00:41:49.294Z,0
2018-01-15T00:42:49.557Z,0
2018-01-15T00:43:49.781Z,0
2018-01-15T00:44:49.963Z,0
2018-01-15T00:45:50.388Z,0
2018-01-15T00:46:50.272Z,0
2018-01-15T00:47:50.145Z,0
2018-01-15T00:48:50.568Z,0
2018-01-15T00:49:50.681Z,0
2018-01-15T00:50:50.921Z,0
2018-01-15T00:51:50.966Z,0
2018-01-15T00:52:51.140Z,0
2018-01-15T00:53:51.654Z,0
2018-01-15T00:54:51.612Z,0
2018-01-15T00:55:51.133Z,0
2018-01-15T00:56:52.078Z,0
2018-01-15T00:57:52.074Z,0
2018-01-15T00:58:51.110Z,0
2018-01-15T00:59:53.684Z,0
2018-01-15T01:00:53.197Z,0
2018-01-15T01:01:52.960Z,0
2018-01-15T01:02:51.741Z,0
2018-01-15T01:03:53.063Z,0
2018-01-15T01:04:53.490Z,0
2018-01-15T01:05:53.234Z,0
2018-01-15T01:06:52.727Z,0
2018-01-15T01:07:52.572Z,0
2018-01-15T01:08:52.668Z,0
2018-01-15T01:09:53.432Z,0
2018-01-15T01:10:52.558Z,0
2018-01-15T01:11:52.766Z,0
2018-01-15T01:12:53.642Z,0
2018-01-15T01:13:53.986Z,0
2018-01-15T01:14:53.873Z,0
2018-01-15T01:15:52.689Z,0
2018-01-15T01:16:52.905Z,0
2018-01-15T01:17:52.749Z,0
2018-01-15T01:18:51.854Z,0
2018-01-15T01:19:52.971Z,0
2018-01-15T01:20:52.941Z,0
2018-01-15T01:21:54.497Z,0
2018-01-15T01:22:53.691Z,0
2018-01-15T01:23:53.099Z,0
2018-01-15T01:24:54.412Z,0
2018-01-15T01:25:53.017Z,0
2018-01-15T01:26:53.134Z,0
2018-01-15T01:27:53.420Z,0
2018-01-15T01:28:52.558Z,0
2018-01-15T01:29:52.736Z,0
2018-01-15T01:30:53.526Z,0
2018-01-15T01:31:53.360Z,0
2018-01-15T01:32:53.341Z,0
2018-01-15T01:33:53.073Z,0
2018-01-15T01:34:53.940Z,0
2018-01-15T01:35:53.231Z,0
2018-01-15T01:36:53.917Z,0
2018-01-15T01:37:55.191Z,0
2018-01-15T01:38:54.913Z,0
2018-01-15T01:39:53.601Z,0
2018-01-15T01:40:53.355Z,0
2018-01-15T01:41:54.405Z,0
2018-01-15T01:42:53.659Z,0
2018-01-15T01:43:53.824Z,0
2018-01-15T01:44:53.875Z,0
2018-01-15T01:45:54.129Z,0
2018-01-15T01:46:54.552Z,0
2018-01-15T01:47:54.643Z,0
2018-01-15T01:48:54.762Z,0
2018-01-15T01:49:54.437Z,0
2018-01-15T01:50:54.777Z,0
2018-01-15T01:51:54.755Z,0
2018-01-15T01:52:54.930Z,0
2018-01-15T01:53:54.156Z,0
2018-01-15T01:54:54.569Z,0
2018-01-15T01:55:54.942Z,0
2018-01-15T01:56:55.102Z,0
2018-01-15T01:57:56.425Z,0
2018-01-15T01:58:57.186Z,0
2018-01-15T01:59:57.254Z,0
2018-01-15T02:00:57.190Z,0
2018-01-15T02:01:56.733Z,0
2018-01-15T02:02:55.799Z,0
2018-01-15T02:03:56.424Z,0
2018-01-15T02:04:57.511Z,0
2018-01-15T02:05:56.898Z,0
2018-01-15T02:06:56.898Z,0
2018-01-15T02:07:56.008Z,0
2018-01-15T02:08:56.355Z,0
2018-01-15T02:09:56.073Z,0
2018-01-15T02:10:56.609Z,0
2018-01-15T02:11:56.732Z,0
2018-01-15T02:12:56.494Z,0
2018-01-15T02:13:56.959Z,0
2018-01-15T02:14:56.932Z,0
2018-01-15T02:15:57.419Z,0
2018-01-15T02:16:57.557Z,0
2018-01-15T02:17:57.802Z,0
2018-01-15T02:18:58.198Z,0
2018-01-15T02:19:58.560Z,0
2018-01-15T02:20:58.521Z,0
2018-01-15T02:21:58.400Z,0
2018-01-15T02:22:59.183Z,0
2018-01-15T02:23:59.362Z,0
2018-01-15T02:24:59.476Z,0
2018-01-15T02:25:59.386Z,0
2018-01-15T02:26:59.124Z,0
2018-01-15T02:27:59.779Z,0
2018-01-15T02:28:59.657Z,0
2018-01-15T02:29:59.786Z,0
2018-01-15T02:31:00.145Z,0
2018-01-15T02:32:01.524Z,0
2018-01-15T02:33:00.903Z,0
2018-01-15T02:34:02.944Z,0
2018-01-15T02:35:01.584Z,0
2018-01-15T02:36:02.297Z,0
2018-01-15T02:37:02.878Z,0
2018-01-15T02:38:03.593Z,0
2018-01-15T02:39:02.542Z,0
2018-01-15T02:40:04.009Z,0
2018-01-15T02:41:03.008Z,0
2018-01-15T02:42:03.437Z,0
2018-01-15T02:43:03.232Z,0
2018-01-15T02:44:03.081Z,0
2018-01-15T02:45:03.125Z,0
2018-01-15T02:46:03.366Z,0
2018-01-15T02:47:03.469Z,0
2018-01-15T02:48:03.603Z,0
2018-01-15T02:49:03.457Z,0
2018-01-15T02:50:04.778Z,0
2018-01-15T02:51:03.400Z,0
2018-01-15T02:52:04.356Z,0
2018-01-15T02:53:03.671Z,0
2018-01-15T02:54:04.587Z,0
2018-01-15T02:55:03.820Z,0
2018-01-15T02:56:04.687Z,0
2018-01-15T02:57:04.052Z,0
2018-01-15T02:58:06.236Z,0
2018-01-15T02:59:04.895Z,0
2018-01-15T03:00:21.179Z,0
2018-01-15T03:01:05.854Z,0
2018-01-15T03:02:05.918Z,0
2018-01-15T03:03:06.084Z,0
2018-01-15T03:04:06.692Z,0
2018-01-15T03:05:05.994Z,0
2018-01-15T03:06:07.089Z,0
2018-01-15T03:07:06.900Z,0
2018-01-15T03:08:06.827Z,0
2018-01-15T03:09:06.574Z,0
2018-01-15T03:10:06.859Z,0
2018-01-15T03:11:06.909Z,0
2018-01-15T03:12:06.694Z,0
2018-01-15T03:13:07.375Z,0
2018-01-15T03:14:06.473Z,0
2018-01-15T03:15:21.672Z,0
2018-01-15T03:16:06.976Z,0
2018-01-15T03:17:07.186Z,0
2018-01-15T03:18:09.305Z,0
2018-01-15T03:19:08.741Z,0
2018-01-15T03:20:07.728Z,0
2018-01-15T03:21:09.364Z,0
2018-01-15T03:22:08.199Z,0
2018-01-15T03:23:08.844Z,0
2018-01-15T03:24:09.478Z,0
2018-01-15T03:25:09.966Z,0
2018-01-15T03:26:10.158Z,0
2018-01-15T03:27:10.210Z,0
2018-01-15T03:28:09.972Z,0
2018-01-15T03:29:09.370Z,0
2018-01-15T03:30:09.018Z,0
2018-01-15T03:31:09.547Z,0
2018-01-15T03:32:08.750Z,0
2018-01-15T03:33:10.282Z,0
2018-01-15T03:34:08.801Z,0
2018-01-15T03:35:23.849Z,0
2018-01-15T03:36:24.600Z,0
2018-01-15T03:37:23.730Z,0
2018-01-15T03:38:23.605Z,0
2018-01-15T03:39:23.793Z,0
2018-01-15T03:40:23.948Z,0
2018-01-15T03:41:25.068Z,0
2018-01-15T03:42:25.344Z,0
2018-01-15T03:43:24.492Z,0
2018-01-15T03:44:25.122Z,0
2018-01-15T03:45:25.212Z,0
2018-01-15T03:46:26.895Z,0
2018-01-15T03:47:40.541Z,0
2018-01-15T03:48:26.345Z,0
2018-01-15T03:49:26.805Z,0
2018-01-15T03:50:26.486Z,0
2018-01-15T03:51:26.366Z,0
2018-01-15T03:52:26.507Z,0
2018-01-15T03:53:25.990Z,0
2018-01-15T03:54:25.566Z,0
2018-01-15T03:55:25.243Z,0
2018-01-15T03:56:24.962Z,0
2018-01-15T03:57:25.277Z,0
2018-01-15T03:58:25.581Z,0
2018-01-15T03:59:25.307Z,0
2018-01-15T04:00:40.357Z,0
2018-01-15T04:01:40.816Z,0
2018-01-15T04:02:39.982Z,0
2018-01-15T04:03:40.151Z,0
2018-01-15T04:04:41.287Z,0
2018-01-15T04:05:41.543Z,0
2018-01-15T04:06:41.249Z,0
2018-01-15T04:07:42.304Z,0
2018-01-15T04:08:42.043Z,0
2018-01-15T04:09:41.990Z,0
2018-01-15T04:10:42.675Z,0
2018-01-15T04:11:41.961Z,0
2018-01-15T04:12:42.574Z,0
2018-01-15T04:13:42.719Z,0
2018-01-15T04:14:42.435Z,0
2018-01-15T04:15:42.718Z,0
2018-01-15T04:16:44.455Z,0
2018-01-15T04:17:44.276Z,0
2018-01-15T04:18:43.660Z,0
2018-01-15T04:19:43.212Z,0
2018-01-15T04:20:44.614Z,0
2018-01-15T04:21:43.298Z,0
2018-01-15T04:22:44.071Z,0
2018-01-15T04:23:45.514Z,0
2018-01-15T04:24:44.132Z,0
2018-01-15T04:25:43.678Z,0
2018-01-15T04:26:43.144Z,0
2018-01-15T04:27:43.175Z,0
2018-01-15T04:28:43.315Z,0
2018-01-15T04:29:43.630Z,0
2018-01-15T04:30:43.998Z,0
2018-01-15T04:31:43.988Z,0
2018-01-15T04:32:44.121Z,0
2018-01-15T04:33:44.386Z,0
2018-01-15T04:34:44.229Z,0
2018-01-15T04:35:45.129Z,0
2018-01-15T04:36:44.533Z,0
2018-01-15T04:37:45.213Z,0
2018-01-15T04:38:44.392Z,0
2018-01-15T04:39:45.584Z,0
2018-01-15T04:40:46.217Z,0
2018-01-15T04:41:45.676Z,0
2018-01-15T04:42:46.131Z,0
2018-01-15T04:43:45.434Z,0
2018-01-15T04:44:45.677Z,0
2018-01-15T04:45:45.757Z,0
2018-01-15T04:46:45.513Z,0
2018-01-15T04:47:45.185Z,0
2018-01-15T04:48:45.172Z,0
2018-01-15T04:49:45.671Z,0
2018-01-15T04:50:45.856Z,0
2018-01-15T04:51:46.217Z,0
2018-01-15T04:52:45.916Z,0
2018-01-15T04:53:46.254Z,0
2018-01-15T04:54:45.873Z,0
2018-01-15T04:55:45.701Z,0
2018-01-15T04:56:46.062Z,0
2018-01-15T04:57:46.915Z,0
2018-01-15T04:58:47.024Z,0
2018-01-15T04:59:46.844Z,0
2018-01-15T05:00:47.292Z,0
2018-01-15T05:01:48.014Z,0
2018-01-15T05:02:48.145Z,0
2018-01-15T05:03:47.739Z,0
2018-01-15T05:04:48.024Z,0
2018-01-15T05:05:48.687Z,0
2018-01-15T05:06:48.284Z,0
2018-01-15T05:07:48.563Z,0
2018-01-15T05:08:47.805Z,0
2018-01-15T05:09:48.709Z,0
2018-01-15T05:10:48.614Z,0
2018-01-15T05:11:48.366Z,0
2018-01-15T05:12:48.354Z,0
2018-01-15T05:13:48.844Z,0
2018-01-15T05:14:48.579Z,0
2018-01-15T05:15:49.030Z,0
2018-01-15T05:16:48.282Z,0
2018-01-15T05:17:48.533Z,0
2018-01-15T05:18:48.461Z,0
2018-01-15T05:19:48.969Z,0
2018-01-15T05:20:49.009Z,0
2018-01-15T05:21:49.286Z,0
2018-01-15T05:22:49.804Z,0
2018-01-15T05:23:49.709Z,0
2018-01-15T05:24:50.564Z,0
2018-01-15T05:25:50.636Z,0
2018-01-15T05:26:49.979Z,0
2018-01-15T05:27:50.303Z,0
2018-01-15T05:28:50.072Z,0
2018-01-15T05:29:51.461Z,0
2018-01-15T05:30:51.653Z,0
2018-01-15T05:31:51.842Z,0
2018-01-15T05:32:51.826Z,0
2018-01-15T05:33:51.158Z,0
2018-01-15T05:34:51.087Z,0
2018-01-15T05:35:51.419Z,0
2018-01-15T05:36:51.469Z,0
2018-01-15T05:37:50.880Z,0
2018-01-15T05:38:50.976Z,0
2018-01-15T05:39:51.243Z,0
2018-01-15T05:40:51.707Z,0
2018-01-15T05:41:52.331Z,0
2018-01-15T05:42:51.450Z,0
2018-01-15T05:43:51.984Z,0
2018-01-15T05:44:52.241Z,0
2018-01-15T05:45:51.788Z,0
2018-01-15T05:46:53.486Z,0
2018-01-15T05:47:52.469Z,0
2018-01-15T05:48:53.362Z,0
2018-01-15T05:49:53.271Z,0
2018-01-15T05:50:52.692Z,0
2018-01-15T05:51:52.463Z,0
2018-01-15T05:52:52.461Z,0
2018-01-15T05:53:52.885Z,0
2018-01-15T05:54:53.158Z,0
2018-01-15T05:55:52.913Z,0
2018-01-15T05:56:52.698Z,0
2018-01-15T05:57:53.397Z,0
2018-01-15T05:58:53.215Z,0
2018-01-15T05:59:53.185Z,0
2018-01-15T06:01:08.188Z,0
2018-01-15T06:01:53.346Z,0
2018-01-15T06:02:53.684Z,0
2018-01-15T06:03:53.729Z,0
2018-01-15T06:04:54.379Z,0
2018-01-15T06:05:54.064Z,0
2018-01-15T06:06:53.797Z,0
2018-01-15T06:07:53.726Z,0
2018-01-15T06:08:54.087Z,0
2018-01-15T06:09:54.086Z,0
2018-01-15T06:10:54.387Z,0
2018-01-15T06:11:54.556Z,0
2018-01-15T06:12:54.460Z,0
2018-01-15T06:13:55.563Z,0
2018-01-15T06:14:54.673Z,0
2018-01-15T06:15:54.428Z,0
2018-01-15T06:16:56.049Z,0
2018-01-15T06:17:55.588Z,0
2018-01-15T06:18:55.953Z,0
2018-01-15T06:19:54.460Z,0
2018-01-15T06:20:55.190Z,0
2018-01-15T06:21:54.953Z,0
2018-01-15T06:22:56.648Z,0
2018-01-15T06:23:54.894Z,0
2018-01-15T06:24:55.204Z,0
2018-01-15T06:25:54.845Z,0
2018-01-15T06:26:54.867Z,0
2018-01-15T06:27:55.009Z,0
2018-01-15T06:28:55.295Z,0
2018-01-15T06:29:54.880Z,0
2018-01-15T06:30:55.938Z,0
2018-01-15T06:31:55.258Z,0
2018-01-15T06:32:55.353Z,0
2018-01-15T06:33:54.948Z,4
2018-01-15T06:34:56.488Z,4
2018-01-15T06:35:55.971Z,0
2018-01-15T06:36:56.278Z,0
2018-01-15T06:37:56.220Z,4
2018-01-15T06:38:56.285Z,0
2018-01-15T06:39:56.261Z,4
2018-01-15T06:40:56.144Z,0
2018-01-15T06:41:55.958Z,4
2018-01-15T06:42:56.048Z,4
2018-01-15T06:43:55.620Z,4
2018-01-15T06:44:56.403Z,8
2018-01-15T06:45:56.386Z,8
2018-01-15T06:46:56.465Z,8
2018-01-15T06:47:55.657Z,12
2018-01-15T06:48:55.985Z,12
2018-01-15T06:49:56.757Z,12
2018-01-15T06:50:56.222Z,16
2018-01-15T06:51:56.640Z,20
2018-01-15T06:52:56.747Z,20
2018-01-15T06:53:56.534Z,24
2018-01-15T06:54:56.332Z,28
2018-01-15T06:55:56.573Z,32
2018-01-15T06:56:56.331Z,36
2018-01-15T06:57:57.086Z,40
2018-01-15T06:58:57.350Z,48
2018-01-15T06:59:56.878Z,52
2018-01-15T07:00:56.819Z,56
2018-01-15T07:01:57.968Z,60
2018-01-15T07:02:57.314Z,72
2018-01-15T07:03:58.482Z,76
2018-01-15T07:04:58.808Z,80
2018-01-15T07:05:58.103Z,92
2018-01-15T07:06:58.198Z,100
2018-01-15T07:07:58.259Z,108
2018-01-15T07:08:58.222Z,116
2018-01-15T07:09:58.353Z,124
2018-01-15T07:10:57.994Z,136
2018-01-15T07:11:59.060Z,144
2018-01-15T07:12:58.288Z,156
2018-01-15T07:13:58.713Z,168
2018-01-15T07:14:59.061Z,180
2018-01-15T07:15:58.728Z,192
2018-01-15T07:16:58.517Z,204
2018-01-15T07:17:59.171Z,220
2018-01-15T07:18:58.721Z,232
2018-01-15T07:19:59.273Z,244
2018-01-15T07:20:58.984Z,260
2018-01-15T07:21:59.455Z,276
2018-01-15T07:22:59.405Z,292
2018-01-15T07:23:59.885Z,308
2018-01-15T07:24:59.872Z,324
2018-01-15T07:25:59.720Z,340
2018-01-15T07:27:02.585Z,360
2018-01-15T07:28:00.740Z,376
2018-01-15T07:29:01.318Z,396
2018-01-15T07:30:01.060Z,416
2018-01-15T07:31:01.390Z,436
2018-01-15T07:32:00.977Z,456
2018-01-15T07:33:01.375Z,476
2018-01-15T07:34:02.163Z,496
2018-01-15T07:35:01.578Z,516
2018-01-15T07:36:01.988Z,544
2018-01-15T07:37:02.856Z,560
2018-01-15T07:38:02.908Z,588
2018-01-15T07:39:02.308Z,612
2018-01-15T07:40:01.740Z,636
2018-01-15T07:41:02.131Z,660
2018-01-15T07:42:01.447Z,692
2018-01-15T07:43:02.178Z,712
2018-01-15T07:44:02.114Z,736
2018-01-15T07:45:02.146Z,768
2018-01-15T07:46:02.215Z,792
2018-01-15T07:47:02.396Z,816
2018-01-15T07:48:02.301Z,848
2018-01-15T07:49:01.756Z,868
2018-01-15T07:50:18.808Z,904
2018-01-15T07:51:02.732Z,928
2018-01-15T07:52:03.247Z,948
2018-01-15T07:53:03.710Z,976
2018-01-15T07:54:02.697Z,1008
2018-01-15T07:55:02.719Z,1028
2018-01-15T07:56:02.987Z,1060
2018-01-15T07:57:02.839Z,1092
2018-01-15T07:58:03.479Z,1116
2018-01-15T07:59:03.282Z,1136
2018-01-15T08:01:02.890Z,1188
2018-01-15T08:02:04.638Z,1216
2018-01-15T08:03:04.002Z,1252
2018-01-15T08:04:04.638Z,1276
2018-01-15T08:05:04.980Z,1292
2018-01-15T08:06:03.906Z,1320
2018-01-15T08:07:04.240Z,1352
2018-01-15T08:08:04.184Z,1380
2018-01-15T08:09:04.041Z,1400
2018-01-15T08:10:04.163Z,1428
2018-01-15T08:11:03.837Z,1456
2018-01-15T08:12:04.678Z,1484
2018-01-15T08:13:04.582Z,1496
2018-01-15T08:14:04.217Z,1528
2018-01-15T08:15:04.538Z,1556
2018-01-15T08:16:04.404Z,1588
2018-01-15T08:17:04.760Z,1604
2018-01-15T08:18:04.460Z,1628
2018-01-15T08:19:05.355Z,1648
2018-01-15T08:20:05.611Z,1676
2018-01-15T08:21:06.605Z,1696
2018-01-15T08:22:05.038Z,1716
2018-01-15T08:23:05.379Z,1744
2018-01-15T08:24:05.172Z,1760
2018-01-15T08:25:05.214Z,1784
2018-01-15T08:26:05.129Z,1808
2018-01-15T08:27:05.483Z,1828
2018-01-15T08:28:06.307Z,1852
2018-01-15T08:29:06.484Z,1880
2018-01-15T08:30:06.407Z,1912
2018-01-15T08:31:05.644Z,1936
2018-01-15T08:32:06.420Z,1952
2018-01-15T08:33:07.243Z,1976
2018-01-15T08:34:07.550Z,1984
2018-01-15T08:35:07.538Z,2008
2018-01-15T08:36:08.826Z,2036
2018-01-15T08:37:08.314Z,2052
2018-01-15T08:38:09.114Z,2076
2018-01-15T08:39:07.793Z,2100
2018-01-15T08:40:08.972Z,2120
2018-01-15T08:41:09.449Z,2140
2018-01-15T08:42:08.088Z,2160
2018-01-15T08:43:07.751Z,2180
2018-01-15T08:44:09.173Z,2208
2018-01-15T08:45:09.597Z,2232
2018-01-15T08:46:09.170Z,2256
2018-01-15T08:47:09.086Z,2276
2018-01-15T08:48:08.323Z,2288
2018-01-15T08:49:08.453Z,2312
2018-01-15T08:50:07.775Z,2328
2018-01-15T08:51:08.918Z,2356
2018-01-15T08:52:07.649Z,2384
2018-01-15T08:53:07.653Z,2412
2018-01-15T08:54:08.530Z,2452
2018-01-15T08:55:08.925Z,2504
2018-01-15T08:56:07.222Z,2552
2018-01-15T08:57:07.828Z,2620
2018-01-15T08:58:07.530Z,2688
2018-01-15T08:59:09.063Z,2748
2018-01-15T09:00:23.749Z,2832
2018-01-15T09:01:08.317Z,2924
2018-01-15T09:02:09.202Z,3044
2018-01-15T09:03:08.761Z,3188
2018-01-15T09:04:08.377Z,4388
2018-01-15T09:05:08.255Z,7108
2018-01-15T09:06:08.929Z,10076
2018-01-15T09:07:08.270Z,10556
2018-01-15T09:08:08.194Z,9260
2018-01-15T09:09:08.382Z,10548
2018-01-15T09:10:23.771Z,12836
2018-01-15T09:11:08.833Z,13244
2018-01-15T09:12:09.807Z,13700
2018-01-15T09:13:09.689Z,14240
2018-01-15T09:14:09.369Z,14400
2018-01-15T09:15:08.906Z,14432
2018-01-15T09:16:09.519Z,13096
2018-01-15T09:17:24.893Z,12412
2018-01-15T09:18:09.471Z,11916
2018-01-15T09:19:10.595Z,11300
2018-01-15T09:20:10.063Z,11476
2018-01-15T09:21:10.391Z,11876
2018-01-15T09:22:10.607Z,12884
2018-01-15T09:23:10.390Z,13848
2018-01-15T09:24:10.824Z,14272
2018-01-15T09:25:10.668Z,14528
2018-01-15T09:26:10.538Z,14300
2018-01-15T09:27:15.743Z,12956
2018-01-15T09:28:15.785Z,12580
2018-01-15T09:29:15.531Z,13504
2018-01-15T09:30:16.108Z,12988
2018-01-15T09:31:16.106Z,13948
2018-01-15T09:32:15.945Z,14496
2018-01-15T09:33:16.258Z,15008
2018-01-15T09:34:16.355Z,14752
2018-01-15T09:35:16.459Z,14752
2018-01-15T09:36:17.864Z,15008
2018-01-15T09:37:17.885Z,14112
2018-01-15T09:38:16.486Z,14136
2018-01-15T09:39:16.488Z,14052
2018-01-15T09:40:16.731Z,11872
2018-01-15T09:41:16.629Z,11988
2018-01-15T09:43:17.180Z,15296
2018-01-15T09:44:17.591Z,16256
2018-01-15T09:45:16.676Z,15136
2018-01-15T09:46:17.878Z,12020
2018-01-15T09:47:17.657Z,8488
2018-01-15T09:48:17.967Z,11028
2018-01-15T09:49:18.351Z,13820
2018-01-15T09:50:17.892Z,13744
2018-01-15T09:51:17.860Z,12756
2018-01-15T09:52:18.005Z,12380
2018-01-15T09:53:18.609Z,15296
2018-01-15T09:54:18.382Z,16864
2018-01-15T09:55:17.786Z,16896
2018-01-15T09:56:17.837Z,15904
2018-01-15T09:57:17.408Z,12980
2018-01-15T09:58:18.193Z,15424
2018-01-15T09:59:18.313Z,12808
2018-01-15T10:00:18.395Z,11512
2018-01-15T10:01:18.633Z,11168
2018-01-15T10:02:18.703Z,14752
2018-01-15T10:03:18.772Z,17760
2018-01-15T10:04:18.546Z,19616
2018-01-15T10:05:19.580Z,19456
2018-01-15T10:06:19.565Z,20224
2018-01-15T10:07:21.010Z,19488
2018-01-15T10:08:20.602Z,17888
2018-01-15T10:09:20.798Z,17344
2018-01-15T10:10:18.990Z,17856
2018-01-15T10:11:19.239Z,18112
2018-01-15T10:12:19.687Z,18784
2018-01-15T10:13:18.794Z,20480
2018-01-15T10:14:48.403Z,22208
2018-01-15T10:15:18.695Z,22336
2018-01-15T10:16:20.796Z,22208
2018-01-15T10:17:20.747Z,22016
2018-01-15T10:18:20.388Z,21760
2018-01-15T10:19:20.339Z,22720
2018-01-15T10:20:19.785Z,22272
2018-01-15T10:21:19.893Z,22016
2018-01-15T10:22:20.303Z,22080
2018-01-15T10:23:19.733Z,21952
2018-01-15T10:24:19.962Z,21120
2018-01-15T10:25:20.192Z,21184
2018-01-15T10:26:20.408Z,21056
2018-01-15T10:27:21.251Z,20960
2018-01-15T10:28:20.922Z,20992
2018-01-15T10:29:20.707Z,21216
2018-01-15T10:30:20.943Z,21088
2018-01-15T10:31:22.013Z,21024
2018-01-15T10:32:21.091Z,20672
2018-01-15T10:33:21.131Z,20704
2018-01-15T10:34:21.886Z,20928
2018-01-15T10:35:22.035Z,20384
2018-01-15T10:36:21.397Z,21056
2018-01-15T10:37:21.804Z,21888
2018-01-15T10:38:22.157Z,22048
2018-01-15T10:39:21.710Z,21568
2018-01-15T10:40:22.371Z,21216
2018-01-15T10:41:21.982Z,16928
2018-01-15T10:42:22.613Z,8592
2018-01-15T10:43:22.293Z,6068
2018-01-15T10:44:22.667Z,5596
2018-01-15T10:45:22.669Z,5480
2018-01-15T10:46:23.622Z,5240
2018-01-15T10:47:23.647Z,5236
2018-01-15T10:48:23.615Z,5364
2018-01-15T10:49:23.375Z,4484
2018-01-15T10:50:23.358Z,5848
2018-01-15T10:51:23.490Z,5796
2018-01-15T10:52:23.778Z,5384
2018-01-15T10:53:23.600Z,5220
2018-01-15T10:54:24.167Z,5036
2018-01-15T10:55:23.989Z,4920
2018-01-15T10:56:23.827Z,4828
2018-01-15T10:57:23.861Z,4240
2018-01-15T10:58:24.799Z,4464
2018-01-15T10:59:24.952Z,4664
2018-01-15T11:00:30.203Z,4632
2018-01-15T11:01:30.351Z,4676
2018-01-15T11:02:29.889Z,4660
2018-01-15T11:03:30.783Z,4660
2018-01-15T11:04:30.662Z,4596
2018-01-15T11:05:30.203Z,4528
2018-01-15T11:06:30.429Z,4420
2018-01-15T11:07:30.977Z,4360
2018-01-15T11:08:30.094Z,4300
2018-01-15T11:09:30.349Z,4272
2018-01-15T11:10:30.474Z,4272
2018-01-15T11:11:30.610Z,4240
2018-01-15T11:12:30.799Z,4204
2018-01-15T11:13:30.778Z,4188
2018-01-15T11:14:31.735Z,4112
2018-01-15T11:15:31.713Z,4096
2018-01-15T11:16:32.022Z,4060
2018-01-15T11:17:32.988Z,3996
2018-01-15T11:18:31.512Z,3928
2018-01-15T11:19:31.876Z,3876
2018-01-15T11:20:32.528Z,3808
2018-01-15T11:21:32.553Z,3796
2018-01-15T11:22:32.772Z,3772
2018-01-15T11:23:32.879Z,3736
2018-01-15T11:24:32.793Z,3636
2018-01-15T11:25:33.231Z,3604
2018-01-15T11:26:32.796Z,3588
2018-01-15T11:27:32.650Z,3576
2018-01-15T11:28:33.301Z,3544
2018-01-15T11:29:33.280Z,3504
2018-01-15T11:30:33.508Z,3452
2018-01-15T11:31:33.525Z,3388
2018-01-15T11:32:34.618Z,3372
2018-01-15T11:33:33.787Z,3352
2018-01-15T11:34:34.421Z,3324
2018-01-15T11:35:34.045Z,3268
2018-01-15T11:36:36.705Z,3232
2018-01-15T11:37:34.886Z,3216
2018-01-15T11:38:36.369Z,3184
2018-01-15T11:39:37.027Z,3188
2018-01-15T11:40:36.795Z,3172
2018-01-15T11:41:35.074Z,3144
2018-01-15T11:42:37.256Z,3104
2018-01-15T11:43:35.829Z,3096
2018-01-15T11:44:35.787Z,3072
2018-01-15T11:45:36.561Z,3056
2018-01-15T11:46:35.595Z,3036
2018-01-15T11:47:35.825Z,3008
2018-01-15T11:48:36.194Z,2992
2018-01-15T11:49:37.265Z,2964
2018-01-15T11:50:37.314Z,2956
2018-01-15T11:51:36.190Z,2912
2018-01-15T11:52:35.810Z,2888
2018-01-15T11:53:36.449Z,2860
2018-01-15T11:54:38.705Z,2864
2018-01-15T11:55:36.961Z,2848
2018-01-15T11:56:36.539Z,2820
2018-01-15T11:57:37.196Z,2800
2018-01-15T11:58:37.219Z,2760
2018-01-15T11:59:37.317Z,2740
2018-01-15T12:00:37.333Z,2724
2018-01-15T12:01:37.207Z,2728
2018-01-15T12:02:37.799Z,2688
2018-01-15T12:03:38.201Z,2644
2018-01-15T12:04:37.887Z,2612
2018-01-15T12:05:38.203Z,2620
2018-01-15T12:06:38.476Z,2604
2018-01-15T12:07:39.154Z,2596
2018-01-15T12:08:38.260Z,2584
2018-01-15T12:09:38.934Z,2544
2018-01-15T12:10:39.100Z,2468
2018-01-15T12:11:39.245Z,2424
2018-01-15T12:12:39.500Z,2380
2018-01-15T12:13:39.389Z,2396
2018-01-15T12:14:39.645Z,2380
2018-01-15T12:15:40.369Z,2424
2018-01-15T12:16:40.447Z,1996
2018-01-15T12:17:40.313Z,1928
2018-01-15T12:18:40.405Z,1932
2018-01-15T12:19:40.449Z,2080
2018-01-15T12:20:40.996Z,2272
2018-01-15T12:21:40.949Z,2552
2018-01-15T12:22:41.099Z,3016
2018-01-15T12:23:41.720Z,3320
2018-01-15T12:24:41.986Z,3368
2018-01-15T12:25:42.250Z,3428
2018-01-15T12:26:41.574Z,3252
2018-01-15T12:27:42.331Z,3240
2018-01-15T12:28:44.172Z,3260
2018-01-15T12:29:43.716Z,3232
2018-01-15T12:30:42.814Z,3156
2018-01-15T12:31:43.341Z,3132
2018-01-15T12:32:43.424Z,3056
2018-01-15T12:33:42.605Z,2932
2018-01-15T12:34:42.177Z,2876
2018-01-15T12:35:43.826Z,2772
2018-01-15T12:36:43.380Z,2732
2018-01-15T12:37:43.288Z,2684
2018-01-15T12:38:44.220Z,2584
2018-01-15T12:39:43.787Z,2516
2018-01-15T12:40:44.288Z,2480
2018-01-15T12:41:43.392Z,2588
2018-01-15T12:42:43.778Z,2624
2018-01-15T12:43:43.478Z,2760
2018-01-15T12:44:58.231Z,3104
2018-01-15T12:45:43.114Z,3284
2018-01-15T12:46:43.686Z,3608
2018-01-15T12:47:43.859Z,3348
2018-01-15T12:48:43.961Z,2808
2018-01-15T12:49:43.779Z,2448
2018-01-15T12:50:43.217Z,2216
2018-01-15T12:51:43.537Z,2076
2018-01-15T12:52:43.468Z,2104
2018-01-15T12:53:44.125Z,2296
2018-01-15T12:54:44.109Z,2232
2018-01-15T12:55:44.203Z,2252
2018-01-15T12:56:43.623Z,2068
2018-01-15T12:57:43.871Z,1968
2018-01-15T12:58:44.709Z,1828
2018-01-15T12:59:43.849Z,2116
2018-01-15T13:00:44.431Z,2476
2018-01-15T13:01:44.637Z,2448
2018-01-15T13:02:44.628Z,2528
2018-01-15T13:03:45.098Z,2624
2018-01-15T13:04:45.012Z,2516
2018-01-15T13:05:45.459Z,2540
2018-01-15T13:06:44.676Z,2548
2018-01-15T13:07:44.785Z,2632
2018-01-15T13:08:44.784Z,2612
2018-01-15T13:09:45.431Z,2560
2018-01-15T13:10:44.753Z,2524
2018-01-15T13:11:45.366Z,2412
2018-01-15T13:12:45.547Z,2288
2018-01-15T13:13:45.697Z,2248
2018-01-15T13:14:46.272Z,2180
2018-01-15T13:15:45.713Z,2104
2018-01-15T13:16:47.042Z,2060
2018-01-15T13:17:47.408Z,2012
2018-01-15T13:18:47.484Z,2016
2018-01-15T13:19:46.537Z,1968
2018-01-15T13:20:47.899Z,1992
2018-01-15T13:21:46.844Z,1960
2018-01-15T13:22:46.562Z,1952
2018-01-15T13:23:46.540Z,1908
2018-01-15T13:24:46.713Z,1864
2018-01-15T13:25:47.088Z,1884
2018-01-15T13:26:47.063Z,1960
2018-01-15T13:27:47.302Z,1888
2018-01-15T13:28:47.150Z,1904
2018-01-15T13:29:47.370Z,1952
2018-01-15T13:30:46.863Z,1992
2018-01-15T13:31:47.562Z,1968
2018-01-15T13:32:47.535Z,1944
2018-01-15T13:33:47.534Z,1968
2018-01-15T13:34:48.012Z,1988
2018-01-15T13:35:47.686Z,1936
2018-01-15T13:36:47.920Z,1928
2018-01-15T13:37:47.760Z,1816
2018-01-15T13:38:47.649Z,1876
2018-01-15T13:39:48.206Z,1936
2018-01-15T13:40:47.902Z,2012
2018-01-15T13:41:47.944Z,1964
2018-01-15T13:42:48.562Z,2004
2018-01-15T13:43:48.041Z,1984
2018-01-15T13:44:48.442Z,2076
2018-01-15T13:45:48.037Z,2140
2018-01-15T13:46:47.610Z,2044
2018-01-15T13:47:48.366Z,1872
2018-01-15T13:48:48.361Z,1764
2018-01-15T13:49:48.189Z,1712
2018-01-15T13:50:48.277Z,1596
2018-01-15T13:51:48.570Z,1604
2018-01-15T13:52:48.556Z,1636
2018-01-15T13:53:49.650Z,1604
2018-01-15T13:54:48.091Z,1608
2018-01-15T13:55:48.722Z,1572
2018-01-15T13:56:48.260Z,1484
2018-01-15T13:57:48.468Z,1348
2018-01-15T13:58:48.711Z,1256
2018-01-15T13:59:48.234Z,1220
2018-01-15T14:00:48.942Z,1216
2018-01-15T14:01:49.291Z,1240
2018-01-15T14:02:49.236Z,1128